createdAt,value
2018-09-29T00:00:46.078Z,12.87
2018-09-29T00:03:14.207Z,21.20
2018-09-29T00:05:42.537Z,10.07
2018-09-29T00:08:10.508Z,13.03
2018-09-29T00:10:38.575Z,13.80
2018-09-29T00:13:06.656Z,13.27
2018-09-29T00:15:34.720Z,9.73
2018-09-29T00:18:02.817Z,12.83
2018-09-29T00:20:30.938Z,10.33
2018-09-29T00:22:59.031Z,12.63
2018-09-29T00:25:27.347Z,8.60
2018-09-29T00:27:55.419Z,17.20
2018-09-29T00:30:23.704Z,12.73
2018-09-29T00:32:51.779Z,6.83
2018-09-29T00:35:19.898Z,10.47
2018-09-29T00:37:47.970Z,13.53
2018-09-29T00:40:16.053Z,11.70
2018-09-29T00:42:44.131Z,11.40
2018-09-29T00:45:12.247Z,11.33
2018-09-29T00:47:40.319Z,11.53
2018-09-29T00:50:08.403Z,14.83
2018-09-29T00:52:36.475Z,13.33
2018-09-29T00:55:04.559Z,10.97
2018-09-29T00:57:32.640Z,10.27
2018-09-29T01:00:00.726Z,14.40
2018-09-29T01:02:28.909Z,16.53
2018-09-29T01:04:57.055Z,14.17
2018-09-29T01:07:25.095Z,10.00
2018-09-29T01:09:53.207Z,10.00
2018-09-29T01:12:21.379Z,11.80
2018-09-29T01:14:49.473Z,6.20
2018-09-29T01:17:17.632Z,12.43
2018-09-29T01:19:45.839Z,14.23
2018-09-29T01:22:13.910Z,10.00
2018-09-29T01:24:42.050Z,11.57
2018-09-29T01:27:10.129Z,9.70
2018-09-29T01:29:38.351Z,8.90
2018-09-29T01:32:06.434Z,11.53
2018-09-29T01:34:34.507Z,14.33
2018-09-29T01:37:02.586Z,9.10
2018-09-29T01:39:30.658Z,9.83
2018-09-29T01:41:58.735Z,14.53
2018-09-29T01:44:26.841Z,11.63
2018-09-29T01:46:54.903Z,10.23
2018-09-29T01:49:22.975Z,13.63
2018-09-29T01:51:51.056Z,13.23
2018-09-29T01:54:19.126Z,7.33
2018-09-29T01:56:47.207Z,9.33
2018-09-29T01:59:15.279Z,14.03
2018-09-29T02:01:43.361Z,10.00
2018-09-29T02:04:11.441Z,10.23
2018-09-29T02:06:39.511Z,7.33
2018-09-29T02:09:08.118Z,7.30
2018-09-29T02:11:36.255Z,10.87
2018-09-29T02:14:04.569Z,11.03
2018-09-29T02:16:32.692Z,14.00
2018-09-29T02:19:00.769Z,10.03
2018-09-29T02:21:28.849Z,11.23
2018-09-29T02:23:57.012Z,9.90
2018-09-29T02:26:25.099Z,12.93
2018-09-29T02:28:53.243Z,6.27
2018-09-29T02:31:21.257Z,11.50
2018-09-29T02:33:49.357Z,15.20
2018-09-29T02:36:17.478Z,8.83
2018-09-29T02:38:45.547Z,8.80
2018-09-29T02:41:13.613Z,9.57
2018-09-29T02:43:41.857Z,12.30
2018-09-29T02:46:09.921Z,11.67
2018-09-29T02:48:38.004Z,13.13
2018-09-29T02:51:06.148Z,11.17
2018-09-29T02:53:34.228Z,11.60
2018-09-29T02:56:02.498Z,6.13
2018-09-29T02:58:30.574Z,10.90
2018-09-29T03:00:58.642Z,11.47
2018-09-29T03:03:26.762Z,13.53
2018-09-29T03:05:54.842Z,11.00
2018-09-29T03:08:22.921Z,10.73
2018-09-29T03:10:50.989Z,13.13
2018-09-29T03:13:19.073Z,10.40
2018-09-29T03:15:47.141Z,10.60
2018-09-29T03:18:15.219Z,9.33
2018-09-29T03:20:43.285Z,14.93
2018-09-29T03:23:11.466Z,8.37
2018-09-29T03:25:39.515Z,7.53
2018-09-29T03:28:07.624Z,12.63
2018-09-29T03:30:35.689Z,10.70
2018-09-29T03:33:03.777Z,11.37
2018-09-29T03:35:31.845Z,11.03
2018-09-29T03:37:59.921Z,15.20
2018-09-29T03:40:27.998Z,11.77
2018-09-29T03:42:56.061Z,8.97
2018-09-29T03:45:24.141Z,12.10
2018-09-29T03:47:52.243Z,13.33
2018-09-29T03:50:20.381Z,10.63
2018-09-29T03:52:48.446Z,10.20
2018-09-29T03:55:16.524Z,10.80
2018-09-29T03:57:44.593Z,9.27
2018-09-29T04:00:12.670Z,15.50
2018-09-29T04:02:40.881Z,8.60
2018-09-29T04:05:08.923Z,8.50
2018-09-29T04:07:36.992Z,7.83
2018-09-29T04:10:05.073Z,6.97
2018-09-29T04:12:33.271Z,6.97
2018-09-29T04:15:01.417Z,6.30
2018-09-29T04:17:29.485Z,9.90
2018-09-29T04:19:57.662Z,10.50
2018-09-29T04:22:25.729Z,11.60
2018-09-29T04:24:53.806Z,9.60
2018-09-29T04:27:21.882Z,16.97
2018-09-29T04:29:49.957Z,12.27
2018-09-29T04:32:18.936Z,13.20
2018-09-29T04:34:47.016Z,11.77
2018-09-29T04:37:15.089Z,9.23
2018-09-29T04:39:43.170Z,10.13
2018-09-29T04:42:11.241Z,8.23
2018-09-29T04:44:39.422Z,9.50
2018-09-29T04:47:07.500Z,11.13
2018-09-29T04:49:35.572Z,12.20
2018-09-29T04:52:03.643Z,9.03
2018-09-29T04:54:31.714Z,8.43
2018-09-29T04:56:59.890Z,15.83
2018-09-29T04:59:27.950Z,8.87
2018-09-29T05:01:56.030Z,10.80
2018-09-29T05:04:24.275Z,12.17
2018-09-29T05:06:52.353Z,8.83
2018-09-29T05:09:20.430Z,11.50
2018-09-29T05:11:48.501Z,12.00
2018-09-29T05:14:16.567Z,10.10
2018-09-29T05:16:44.647Z,6.17
2018-09-29T05:19:12.828Z,13.90
2018-09-29T05:21:40.909Z,10.23
2018-09-29T05:24:09.068Z,16.70
2018-09-29T05:26:37.370Z,10.00
2018-09-29T05:29:05.433Z,7.63
2018-09-29T05:31:33.508Z,8.80
2018-09-29T05:34:01.567Z,9.87
2018-09-29T05:36:29.644Z,9.87
2018-09-29T05:38:57.708Z,9.37
2018-09-29T05:41:25.772Z,10.50
2018-09-29T05:43:53.856Z,8.73
2018-09-29T05:46:21.923Z,16.07
2018-09-29T05:48:50.005Z,16.57
2018-09-29T05:51:18.072Z,9.83
2018-09-29T05:53:46.213Z,13.30
2018-09-29T05:56:14.219Z,14.83
2018-09-29T05:58:42.306Z,13.90
2018-09-29T06:01:10.369Z,14.00
2018-09-29T06:03:38.542Z,10.07
2018-09-29T06:06:06.643Z,11.33
2018-09-29T06:08:34.734Z,13.30
2018-09-29T06:11:02.779Z,13.67
2018-09-29T06:13:30.905Z,16.60
2018-09-29T06:15:58.926Z,9.87
2018-09-29T06:18:27.006Z,14.37
2018-09-29T06:20:55.098Z,10.17
2018-09-29T06:23:23.140Z,10.73
2018-09-29T06:25:51.290Z,10.03
2018-09-29T06:28:19.385Z,10.77
2018-09-29T06:30:47.948Z,9.60
2018-09-29T06:33:16.026Z,11.77
2018-09-29T06:35:44.099Z,13.93
2018-09-29T06:38:12.169Z,10.83
2018-09-29T06:40:40.460Z,10.07
2018-09-29T06:43:08.475Z,10.07
2018-09-29T06:45:36.597Z,7.93
2018-09-29T06:48:04.803Z,10.50
2018-09-29T06:50:32.849Z,13.07
2018-09-29T06:53:01.010Z,14.23
2018-09-29T06:55:29.092Z,14.27
2018-09-29T06:57:57.258Z,12.13
2018-09-29T07:00:25.444Z,11.83
2018-09-29T07:02:53.640Z,14.53
2018-09-29T07:05:21.697Z,14.10
2018-09-29T07:07:49.753Z,10.27
2018-09-29T07:10:17.942Z,10.03
2018-09-29T07:12:46.140Z,10.70
2018-09-29T07:15:14.290Z,13.63
2018-09-29T07:17:42.457Z,9.97
2018-09-29T07:20:10.637Z,12.07
2018-09-29T07:22:38.959Z,9.60
2018-09-29T07:25:07.103Z,10.37
2018-09-29T07:27:35.171Z,13.50
2018-09-29T07:30:03.341Z,11.80
2018-09-29T07:32:31.413Z,15.60
2018-09-29T07:34:59.587Z,14.67
2018-09-29T07:37:27.705Z,17.67
2018-09-29T07:39:55.782Z,13.60
2018-09-29T07:42:23.818Z,16.37
2018-09-29T07:44:51.886Z,17.03
2018-09-29T07:47:19.969Z,9.03
2018-09-29T07:49:48.111Z,18.20
2018-09-29T07:52:16.223Z,23.70
2018-09-29T07:54:44.371Z,14.97
2018-09-29T07:57:12.702Z,11.53
2018-09-29T07:59:40.773Z,8.67
2018-09-29T08:02:08.854Z,15.07
2018-09-29T08:04:36.962Z,12.33
2018-09-29T08:07:05.138Z,15.30
2018-09-29T08:09:33.550Z,13.03
2018-09-29T08:12:01.599Z,10.73
2018-09-29T08:14:29.677Z,10.20
2018-09-29T08:16:57.849Z,14.20
2018-09-29T08:19:25.954Z,14.20
2018-09-29T08:21:54.034Z,12.13
2018-09-29T08:24:22.200Z,12.70
2018-09-29T08:26:50.371Z,11.60
2018-09-29T08:29:18.610Z,13.57
2018-09-29T08:31:46.599Z,10.53
2018-09-29T08:34:19.962Z,11.43
2018-09-29T08:36:48.042Z,19.47
2018-09-29T08:39:16.114Z,23.47
2018-09-29T08:41:44.190Z,17.70
2018-09-29T08:44:12.282Z,12.30
2018-09-29T08:46:40.654Z,13.77
2018-09-29T08:49:09.160Z,16.50
2018-09-29T08:51:37.270Z,14.63
2018-09-29T08:54:05.368Z,12.67
2018-09-29T08:56:33.463Z,12.20
2018-09-29T08:59:01.541Z,8.53
2018-09-29T09:01:29.617Z,18.70
2018-09-29T09:03:57.739Z,13.57
2018-09-29T09:06:25.787Z,14.83
2018-09-29T09:08:53.871Z,12.90
2018-09-29T09:11:21.937Z,9.93
2018-09-29T09:13:50.020Z,17.80
2018-09-29T09:16:18.102Z,12.67
2018-09-29T09:18:46.214Z,14.00
2018-09-29T09:21:14.289Z,10.13
2018-09-29T09:23:42.399Z,10.57
2018-09-29T09:26:10.437Z,13.17
2018-09-29T09:28:38.594Z,13.00
2018-09-29T09:31:06.657Z,8.73
2018-09-29T09:33:34.741Z,12.10
2018-09-29T09:36:02.812Z,12.13
2018-09-29T09:38:30.892Z,9.57
2018-09-29T09:40:58.969Z,10.93
2018-09-29T09:43:27.153Z,10.90
2018-09-29T09:45:55.223Z,10.73
2018-09-29T09:48:23.306Z,10.23
2018-09-29T09:50:51.391Z,11.07
2018-09-29T09:53:19.457Z,9.83
2018-09-29T09:55:47.670Z,10.07
2018-09-29T09:58:15.769Z,12.27
2018-09-29T10:00:49.332Z,12.17
2018-09-29T10:03:22.798Z,16.23
2018-09-29T10:05:50.891Z,13.70
2018-09-29T10:08:18.965Z,7.50
2018-09-29T10:10:47.387Z,8.57
2018-09-29T10:13:15.462Z,7.83
2018-09-29T10:15:43.647Z,10.37
2018-09-29T10:18:11.713Z,8.03
2018-09-29T10:20:39.793Z,14.33
2018-09-29T10:23:07.873Z,11.30
2018-09-29T10:25:36.095Z,14.70
2018-09-29T10:28:04.174Z,8.40
2018-09-29T10:30:32.278Z,17.70
2018-09-29T10:33:00.355Z,17.77
2018-09-29T10:35:28.429Z,7.93
2018-09-29T10:37:56.679Z,8.70
2018-09-29T10:40:24.831Z,10.30
2018-09-29T10:42:52.907Z,11.60
2018-09-29T10:45:21.022Z,12.53
2018-09-29T10:47:49.091Z,9.87
2018-09-29T10:50:17.295Z,11.23
2018-09-29T10:52:45.418Z,9.20
2018-09-29T10:55:13.512Z,14.17
2018-09-29T10:57:41.695Z,5.77
2018-09-29T11:00:09.775Z,12.50
2018-09-29T11:02:38.002Z,8.87
2018-09-29T11:05:06.184Z,11.93
2018-09-29T11:07:34.342Z,10.97
2018-09-29T11:10:02.416Z,8.47
2018-09-29T11:12:30.489Z,9.87
2018-09-29T11:14:58.654Z,8.13
2018-09-29T11:17:26.847Z,10.77
2018-09-29T11:19:54.955Z,11.90
2018-09-29T11:22:23.184Z,7.03
2018-09-29T11:24:51.255Z,6.57
2018-09-29T11:27:19.334Z,9.80
2018-09-29T11:29:47.405Z,9.10
2018-09-29T11:32:15.580Z,11.37
2018-09-29T11:34:43.650Z,11.00
2018-09-29T11:37:11.824Z,7.73
2018-09-29T11:39:39.983Z,10.23
2018-09-29T11:42:08.148Z,11.00
2018-09-29T11:44:36.282Z,9.80
2018-09-29T11:47:04.308Z,10.63
2018-09-29T11:49:32.386Z,8.93
2018-09-29T11:52:00.465Z,6.80
2018-09-29T11:54:28.546Z,13.33
2018-09-29T11:56:56.618Z,14.67
2018-09-29T11:59:24.700Z,7.57
2018-09-29T12:01:52.847Z,7.23
2018-09-29T12:04:20.863Z,9.30
2018-09-29T12:06:48.933Z,15.37
2018-09-29T12:09:17.018Z,8.27
2018-09-29T12:11:45.094Z,8.33
2018-09-29T12:14:13.181Z,10.90
2018-09-29T12:16:41.250Z,6.50
2018-09-29T12:19:09.329Z,14.37
2018-09-29T12:21:37.406Z,6.50
2018-09-29T12:24:05.507Z,8.47
2018-09-29T12:26:33.689Z,7.60
2018-09-29T12:29:01.862Z,7.73
2018-09-29T12:31:29.833Z,9.07
2018-09-29T12:33:57.912Z,7.10
2018-09-29T12:36:25.982Z,7.13
2018-09-29T12:38:54.097Z,5.37
2018-09-29T12:41:22.167Z,6.67
2018-09-29T12:43:50.252Z,8.63
2018-09-29T12:46:18.325Z,8.63
2018-09-29T12:48:46.395Z,9.53
2018-09-29T12:51:14.561Z,9.30
2018-09-29T12:53:42.629Z,6.37
2018-09-29T12:56:10.709Z,5.67
2018-09-29T12:58:38.775Z,3.97
2018-09-29T13:01:06.856Z,9.90
2018-09-29T13:03:34.930Z,5.07
2018-09-29T13:06:03.011Z,6.43
2018-09-29T13:08:31.088Z,8.00
2018-09-29T13:10:59.306Z,11.90
2018-09-29T13:13:27.327Z,7.10
2018-09-29T13:15:55.404Z,6.40
2018-09-29T13:18:23.553Z,8.13
2018-09-29T13:20:51.787Z,9.43
2018-09-29T13:23:19.867Z,6.67
2018-09-29T13:25:47.946Z,7.17
2018-09-29T13:28:16.058Z,10.93
2018-09-29T13:30:44.145Z,11.10
2018-09-29T13:33:12.221Z,5.57
2018-09-29T13:35:40.447Z,5.03
2018-09-29T13:38:08.527Z,9.57
2018-09-29T13:40:36.610Z,8.27
2018-09-29T13:43:04.686Z,6.47
2018-09-29T13:45:32.768Z,9.70
2018-09-29T13:48:00.841Z,4.90
2018-09-29T13:50:28.926Z,6.37
2018-09-29T13:52:57.082Z,5.57
2018-09-29T13:55:25.151Z,7.80
2018-09-29T13:57:53.237Z,5.97
2018-09-29T14:00:21.310Z,9.50
2018-09-29T14:02:49.393Z,6.40
2018-09-29T14:05:17.548Z,7.40
2018-09-29T14:07:45.638Z,8.23
2018-09-29T14:10:13.713Z,7.47
2018-09-29T14:12:41.799Z,6.83
2018-09-29T14:15:09.873Z,10.20
2018-09-29T14:17:37.993Z,3.37
2018-09-29T14:20:06.959Z,11.70
2018-09-29T14:22:35.040Z,9.07
2018-09-29T14:25:03.105Z,7.33
2018-09-29T14:27:31.190Z,8.37
2018-09-29T14:29:59.319Z,7.70
2018-09-29T14:32:27.377Z,7.17
2018-09-29T14:34:55.452Z,7.43
2018-09-29T14:37:23.556Z,5.70
2018-09-29T14:39:51.620Z,7.67
2018-09-29T14:42:19.703Z,7.17
2018-09-29T14:44:47.770Z,8.97
2018-09-29T14:47:15.853Z,11.10
2018-09-29T14:49:43.941Z,6.10
2018-09-29T14:52:12.042Z,5.63
2018-09-29T14:54:40.089Z,8.40
2018-09-29T14:57:08.157Z,5.23
2018-09-29T14:59:36.344Z,3.93
2018-09-29T15:02:04.376Z,5.93
2018-09-29T15:04:32.484Z,4.63
2018-09-29T15:07:00.576Z,9.13
2018-09-29T15:09:28.661Z,8.63
2018-09-29T15:11:56.738Z,6.70
2018-09-29T15:14:24.825Z,8.10
2018-09-29T15:16:52.897Z,8.00
2018-09-29T15:19:20.978Z,4.23
2018-09-29T15:21:49.055Z,5.67
2018-09-29T15:24:17.140Z,11.10
2018-09-29T15:26:45.211Z,7.77
2018-09-29T15:29:13.288Z,4.20
2018-09-29T15:31:41.414Z,8.10
2018-09-29T15:34:09.496Z,6.40
2018-09-29T15:36:37.563Z,5.60
2018-09-29T15:39:08.193Z,4.60
2018-09-29T15:41:36.417Z,5.27
2018-09-29T15:44:04.713Z,7.97
2018-09-29T15:46:32.807Z,10.83
2018-09-29T15:49:00.898Z,8.10
2018-09-29T15:51:29.026Z,8.30
2018-09-29T15:53:57.106Z,5.47
2018-09-29T15:56:25.209Z,5.87
2018-09-29T15:58:53.310Z,8.50
2018-09-29T16:01:21.389Z,6.67
2018-09-29T16:03:49.486Z,9.60
2018-09-29T16:06:17.625Z,15.63
2018-09-29T16:08:45.777Z,9.33
2018-09-29T16:11:13.869Z,33.60
2018-09-29T16:13:42.020Z,8.30
2018-09-29T16:16:10.103Z,9.07
2018-09-29T16:18:38.264Z,8.73
2018-09-29T16:21:06.389Z,7.90
2018-09-29T16:23:34.676Z,19.40
2018-09-29T16:26:03.068Z,10.23
2018-09-29T16:28:31.143Z,18.57
2018-09-29T16:30:59.319Z,13.50
2018-09-29T16:33:27.426Z,12.37
2018-09-29T16:35:55.515Z,23.33
2018-09-29T16:38:23.733Z,12.90
2018-09-29T16:40:51.743Z,13.07
2018-09-29T16:43:19.976Z,20.93
2018-09-29T16:45:48.029Z,12.80
2018-09-29T16:48:16.166Z,12.23
2018-09-29T16:50:44.418Z,8.57
2018-09-29T16:53:12.458Z,10.43
2018-09-29T16:55:40.616Z,7.47
2018-09-29T16:58:08.691Z,17.07
2018-09-29T17:00:36.850Z,10.63
2018-09-29T17:03:04.920Z,7.23
2018-09-29T17:05:33.030Z,6.13
2018-09-29T17:08:01.157Z,9.50
2018-09-29T17:10:29.343Z,9.47
2018-09-29T17:12:57.433Z,9.57
2018-09-29T17:15:25.507Z,14.40
2018-09-29T17:17:53.586Z,7.90
2018-09-29T17:20:21.725Z,10.70
2018-09-29T17:22:49.924Z,9.57
2018-09-29T17:25:18.022Z,14.13
2018-09-29T17:27:46.125Z,9.43
2018-09-29T17:30:14.204Z,12.07
2018-09-29T17:32:42.292Z,13.77
2018-09-29T17:35:10.370Z,11.77
2018-09-29T17:37:38.466Z,10.70
2018-09-29T17:40:06.537Z,14.23
2018-09-29T17:42:35.050Z,10.67
2018-09-29T17:45:03.221Z,11.33
2018-09-29T17:47:31.215Z,12.20
2018-09-29T17:49:59.290Z,11.50
2018-09-29T17:52:27.462Z,12.30
2018-09-29T17:54:55.540Z,13.37
2018-09-29T17:57:23.621Z,9.67
2018-09-29T17:59:51.692Z,11.23
2018-09-29T18:02:19.786Z,12.17
2018-09-29T18:04:47.873Z,13.07
2018-09-29T18:07:15.946Z,18.33
2018-09-29T18:09:44.028Z,22.67
2018-09-29T18:12:13.028Z,16.37
2018-09-29T18:14:41.114Z,17.70
2018-09-29T18:17:09.192Z,21.40
2018-09-29T18:19:37.284Z,21.93
2018-09-29T18:22:05.364Z,18.47
2018-09-29T18:24:33.450Z,16.77
2018-09-29T18:27:01.541Z,17.17
2018-09-29T18:29:29.854Z,17.80
2018-09-29T18:31:57.975Z,14.80
2018-09-29T18:34:26.154Z,12.43
2018-09-29T18:36:54.229Z,13.83
2018-09-29T18:39:22.314Z,10.07
2018-09-29T18:41:50.386Z,12.10
2018-09-29T18:44:18.560Z,10.93
2018-09-29T18:46:46.642Z,10.97
2018-09-29T18:49:14.808Z,8.47
2018-09-29T18:51:42.943Z,11.90
2018-09-29T18:54:11.001Z,7.50
2018-09-29T18:56:39.070Z,9.90
2018-09-29T18:59:07.226Z,12.20
2018-09-29T19:01:35.301Z,12.83
2018-09-29T19:04:03.386Z,13.43
2018-09-29T19:06:31.471Z,15.23
2018-09-29T19:08:59.631Z,13.20
2018-09-29T19:11:27.630Z,9.20
2018-09-29T19:13:55.711Z,13.27
2018-09-29T19:16:23.785Z,7.43
2018-09-29T19:18:51.865Z,11.70
2018-09-29T19:21:19.949Z,15.40
2018-09-29T19:23:48.022Z,17.20
2018-09-29T19:26:16.107Z,14.87
2018-09-29T19:28:44.181Z,16.93
2018-09-29T19:31:12.262Z,58.97
2018-09-29T19:33:40.459Z,45.50
2018-09-29T19:36:08.490Z,35.93
2018-09-29T19:38:36.844Z,26.43
2018-09-29T19:41:05.052Z,37.70
2018-09-29T19:43:33.258Z,83.30
2018-09-29T19:46:01.331Z,66.40
2018-09-29T19:48:29.411Z,40.47
2018-09-29T19:50:57.503Z,27.23
2018-09-29T19:53:25.578Z,24.13
2018-09-29T19:55:53.665Z,20.07
2018-09-29T19:58:21.792Z,20.23
2018-09-29T20:00:49.814Z,25.93
2018-09-29T20:03:17.886Z,23.60
2018-09-29T20:05:45.978Z,14.67
2018-09-29T20:08:14.047Z,14.70
2018-09-29T20:10:42.130Z,15.23
2018-09-29T20:13:10.197Z,9.17
2018-09-29T20:15:38.268Z,12.87
2018-09-29T20:18:06.686Z,15.80
2018-09-29T20:20:34.806Z,35.70
2018-09-29T20:23:02.903Z,113.83
2018-09-29T20:25:30.990Z,101.07
2018-09-29T20:27:59.078Z,30.60
2018-09-29T20:30:27.153Z,45.30
2018-09-29T20:32:55.235Z,39.63
2018-09-29T20:35:23.362Z,38.47
2018-09-29T20:37:51.451Z,26.43
2018-09-29T20:40:19.529Z,26.00
2018-09-29T20:42:47.616Z,14.53
2018-09-29T20:45:15.688Z,17.97
2018-09-29T20:47:43.780Z,16.20
2018-09-29T20:50:12.230Z,24.17
2018-09-29T20:52:40.319Z,17.87
2018-09-29T20:55:08.427Z,11.47
2018-09-29T20:57:36.525Z,10.47
2018-09-29T21:00:04.595Z,8.40
2018-09-29T21:02:32.721Z,15.67
2018-09-29T21:05:00.867Z,15.37
2018-09-29T21:07:28.951Z,14.67
2018-09-29T21:09:57.018Z,13.43
2018-09-29T21:12:25.098Z,7.53
2018-09-29T21:14:53.172Z,16.37
2018-09-29T21:17:21.310Z,11.17
2018-09-29T21:19:49.380Z,8.83
2018-09-29T21:22:17.458Z,12.00
2018-09-29T21:24:45.534Z,13.13
2018-09-29T21:27:13.685Z,7.47
2018-09-29T21:29:41.782Z,11.40
2018-09-29T21:32:09.850Z,8.80
2018-09-29T21:34:37.929Z,11.53
2018-09-29T21:37:06.181Z,14.03
2018-09-29T21:39:34.374Z,11.50
2018-09-29T21:42:02.447Z,9.67
2018-09-29T21:44:30.525Z,10.73
2018-09-29T21:46:58.599Z,8.77
2018-09-29T21:49:26.692Z,13.27
2018-09-29T21:51:54.765Z,9.53
2018-09-29T21:54:22.937Z,17.83
2018-09-29T21:56:51.035Z,10.27
2018-09-29T21:59:19.172Z,7.57
2018-09-29T22:01:47.443Z,11.90
2018-09-29T22:04:15.551Z,11.33
2018-09-29T22:06:43.625Z,11.50
2018-09-29T22:09:20.900Z,14.00
2018-09-29T22:11:49.120Z,13.00
2018-09-29T22:14:17.198Z,9.63
2018-09-29T22:16:45.278Z,10.97
2018-09-29T22:19:13.493Z,9.17
2018-09-29T22:21:41.610Z,11.13
2018-09-29T22:24:09.855Z,9.50
2018-09-29T22:26:37.930Z,11.23
2018-09-29T22:29:06.398Z,11.77
2018-09-29T22:31:34.500Z,9.37
2018-09-29T22:34:02.579Z,10.03
2018-09-29T22:36:30.657Z,6.50
2018-09-29T22:38:58.730Z,14.63
2018-09-29T22:41:26.809Z,10.63
2018-09-29T22:43:54.875Z,10.63
2018-09-29T22:46:22.960Z,10.03
2018-09-29T22:48:51.477Z,8.90
2018-09-29T22:51:19.622Z,10.37
2018-09-29T22:53:47.704Z,11.33
2018-09-29T22:56:15.781Z,9.87
2018-09-29T22:58:43.847Z,9.70
2018-09-29T23:01:11.915Z,9.83
2018-09-29T23:03:40.173Z,7.30
2018-09-29T23:06:08.264Z,10.20
2018-09-29T23:08:36.367Z,9.03
2018-09-29T23:11:04.443Z,8.70
2018-09-29T23:13:32.513Z,9.73
2018-09-29T23:16:00.591Z,7.00
2018-09-29T23:18:28.661Z,10.03
2018-09-29T23:20:56.907Z,8.17
2018-09-29T23:23:24.986Z,11.40
2018-09-29T23:25:53.090Z,10.47
2018-09-29T23:28:21.151Z,6.40
2018-09-29T23:30:49.220Z,8.50
2018-09-29T23:33:17.360Z,7.60
2018-09-29T23:35:45.447Z,9.57
2018-09-29T23:38:13.519Z,7.93
2018-09-29T23:40:41.590Z,11.67
2018-09-29T23:43:09.689Z,10.93
2018-09-29T23:45:37.828Z,8.67
2018-09-29T23:48:05.919Z,14.13
2018-09-29T23:50:34.008Z,10.43
2018-09-29T23:53:02.084Z,6.07
2018-09-29T23:55:30.152Z,8.93
2018-09-29T23:57:58.225Z,5.43
